Wellsburg, North Dakota
Current Conditions -  °F | °C
As of 12:15 PM on Friday 24 Oct 2014 (Local Time) from K5H4 Reporting Station
Clear Clear  
Wind Chill: 66°   Ceiling: Unl
Heat Index: 66°   Visibility: 10mi
Dew Point: 39°   Wind: 18mph
Humidity: 37%   Direction: 290°WNW
Pressure: 29.83"   Gusts: 24mph
Location:  47.7822°N, 99.8441°W
Report Text: K5H4 241715Z AUTO 29016G21KT 10SM CLR 19/04 A2983 RMK AO2
Loading
Personal Weather Stations






























Interactive Weather Map
Tropical Storm Tracking
New forecast layout! Learn more

10-Day Weather Forecast

Advertisements
Track Severe Weather on mobile